sensor_id;sensor_type;location;lat;lon;timestamp;P1;durP1;ratioP1;P2;durP2;ratioP2
47860;SDS011;33620;52.340;5.984;2024-01-30T00:01:36;34.88;;;19.35;;
47860;SDS011;33620;52.340;5.984;2024-01-30T00:04:02;35.78;;;20.85;;
47860;SDS011;33620;52.340;5.984;2024-01-30T00:06:27;31.38;;;18.92;;
47860;SDS011;33620;52.340;5.984;2024-01-30T00:08:53;31.85;;;19.02;;
47860;SDS011;33620;52.340;5.984;2024-01-30T00:11:18;30.77;;;18.73;;
47860;SDS011;33620;52.340;5.984;2024-01-30T00:13:43;29.88;;;18.33;;
47860;SDS011;33620;52.340;5.984;2024-01-30T00:16:19;30.05;;;18.05;;
47860;SDS011;33620;52.340;5.984;2024-01-30T00:18:45;30.40;;;17.13;;
47860;SDS011;33620;52.340;5.984;2024-01-30T00:21:10;30.05;;;17.67;;
47860;SDS011;33620;52.340;5.984;2024-01-30T00:23:36;27.48;;;16.10;;
47860;SDS011;33620;52.340;5.984;2024-01-30T00:26:01;29.02;;;17.20;;
47860;SDS011;33620;52.340;5.984;2024-01-30T00:28:27;30.25;;;16.95;;
47860;SDS011;33620;52.340;5.984;2024-01-30T00:30:52;28.52;;;16.63;;
47860;SDS011;33620;52.340;5.984;2024-01-30T00:33:18;29.48;;;17.17;;
47860;SDS011;33620;52.340;5.984;2024-01-30T00:35:43;29.75;;;16.83;;
47860;SDS011;33620;52.340;5.984;2024-01-30T00:38:08;30.25;;;17.88;;
47860;SDS011;33620;52.340;5.984;2024-01-30T00:40:34;31.50;;;18.02;;
47860;SDS011;33620;52.340;5.984;2024-01-30T00:42:59;28.95;;;16.80;;
47860;SDS011;33620;52.340;5.984;2024-01-30T00:45:25;29.35;;;17.60;;
47860;SDS011;33620;52.340;5.984;2024-01-30T00:47:50;29.27;;;15.95;;
47860;SDS011;33620;52.340;5.984;2024-01-30T00:50:15;27.52;;;16.08;;
47860;SDS011;33620;52.340;5.984;2024-01-30T00:52:41;31.60;;;18.63;;
47860;SDS011;33620;52.340;5.984;2024-01-30T00:55:09;28.25;;;16.65;;
47860;SDS011;33620;52.340;5.984;2024-01-30T00:57:35;29.55;;;16.83;;
47860;SDS011;33620;52.340;5.984;2024-01-30T01:00:00;37.63;;;21.25;;
47860;SDS011;33620;52.340;5.984;2024-01-30T01:02:25;30.10;;;16.88;;
47860;SDS011;33620;52.340;5.984;2024-01-30T01:04:51;28.80;;;16.10;;
47860;SDS011;33620;52.340;5.984;2024-01-30T01:07:16;25.92;;;15.52;;
47860;SDS011;33620;52.340;5.984;2024-01-30T01:09:41;32.63;;;18.45;;
47860;SDS011;33620;52.340;5.984;2024-01-30T01:12:07;27.13;;;16.00;;
47860;SDS011;33620;52.340;5.984;2024-01-30T01:14:32;30.33;;;16.13;;
47860;SDS011;33620;52.340;5.984;2024-01-30T01:16:58;26.20;;;15.73;;
47860;SDS011;33620;52.340;5.984;2024-01-30T01:19:23;29.13;;;17.23;;
47860;SDS011;33620;52.340;5.984;2024-01-30T01:21:48;29.70;;;17.42;;
47860;SDS011;33620;52.340;5.984;2024-01-30T01:24:14;29.58;;;16.67;;
47860;SDS011;33620;52.340;5.984;2024-01-30T01:26:39;28.67;;;16.45;;
47860;SDS011;33620;52.340;5.984;2024-01-30T01:29:05;32.72;;;18.08;;
47860;SDS011;33620;52.340;5.984;2024-01-30T01:31:36;30.90;;;17.58;;
47860;SDS011;33620;52.340;5.984;2024-01-30T01:34:09;27.83;;;15.82;;
47860;SDS011;33620;52.340;5.984;2024-01-30T01:36:37;29.25;;;16.27;;
47860;SDS011;33620;52.340;5.984;2024-01-30T01:39:03;28.58;;;17.17;;
47860;SDS011;33620;52.340;5.984;2024-01-30T01:41:32;28.75;;;15.95;;
47860;SDS011;33620;52.340;5.984;2024-01-30T01:43:58;27.00;;;14.70;;
47860;SDS011;33620;52.340;5.984;2024-01-30T01:46:26;26.38;;;15.57;;
47860;SDS011;33620;52.340;5.984;2024-01-30T01:48:52;28.75;;;16.63;;
47860;SDS011;33620;52.340;5.984;2024-01-30T01:51:18;30.33;;;16.77;;
47860;SDS011;33620;52.340;5.984;2024-01-30T01:53:44;31.17;;;17.63;;
47860;SDS011;33620;52.340;5.984;2024-01-30T01:56:10;34.35;;;18.80;;
47860;SDS011;33620;52.340;5.984;2024-01-30T01:58:36;32.80;;;18.90;;
47860;SDS011;33620;52.340;5.984;2024-01-30T02:01:02;40.63;;;20.30;;
47860;SDS011;33620;52.340;5.984;2024-01-30T02:03:30;30.55;;;17.80;;
47860;SDS011;33620;52.340;5.984;2024-01-30T02:05:55;30.63;;;16.55;;
47860;SDS011;33620;52.340;5.984;2024-01-30T02:08:21;28.08;;;15.73;;
47860;SDS011;33620;52.340;5.984;2024-01-30T02:10:47;31.20;;;17.35;;
47860;SDS011;33620;52.340;5.984;2024-01-30T02:13:12;29.75;;;16.52;;
47860;SDS011;33620;52.340;5.984;2024-01-30T02:15:38;28.52;;;17.05;;
47860;SDS011;33620;52.340;5.984;2024-01-30T02:18:03;30.20;;;17.70;;
47860;SDS011;33620;52.340;5.984;2024-01-30T02:20:29;29.38;;;17.13;;
47860;SDS011;33620;52.340;5.984;2024-01-30T02:22:56;36.03;;;19.17;;
47860;SDS011;33620;52.340;5.984;2024-01-30T02:25:42;29.83;;;17.60;;
47860;SDS011;33620;52.340;5.984;2024-01-30T02:28:11;32.92;;;19.17;;
47860;SDS011;33620;52.340;5.984;2024-01-30T02:30:37;29.20;;;15.70;;
47860;SDS011;33620;52.340;5.984;2024-01-30T02:33:03;29.58;;;16.70;;
47860;SDS011;33620;52.340;5.984;2024-01-30T02:35:28;32.65;;;18.10;;
47860;SDS011;33620;52.340;5.984;2024-01-30T02:37:53;32.00;;;18.65;;
47860;SDS011;33620;52.340;5.984;2024-01-30T02:40:19;32.65;;;18.00;;
47860;SDS011;33620;52.340;5.984;2024-01-30T02:42:44;30.15;;;16.88;;
47860;SDS011;33620;52.340;5.984;2024-01-30T02:45:10;27.63;;;15.40;;
47860;SDS011;33620;52.340;5.984;2024-01-30T02:47:36;28.83;;;16.27;;
47860;SDS011;33620;52.340;5.984;2024-01-30T02:50:01;29.13;;;16.02;;
47860;SDS011;33620;52.340;5.984;2024-01-30T02:52:26;30.95;;;18.13;;
47860;SDS011;33620;52.340;5.984;2024-01-30T02:54:52;30.75;;;18.42;;
47860;SDS011;33620;52.340;5.984;2024-01-30T02:57:17;29.30;;;15.98;;
47860;SDS011;33620;52.340;5.984;2024-01-30T02:59:42;26.67;;;15.77;;
47860;SDS011;33620;52.340;5.984;2024-01-30T03:02:08;31.40;;;18.13;;
47860;SDS011;33620;52.340;5.984;2024-01-30T03:04:33;27.13;;;16.30;;
47860;SDS011;33620;52.340;5.984;2024-01-30T03:06:58;28.88;;;16.75;;
47860;SDS011;33620;52.340;5.984;2024-01-30T03:09:24;29.67;;;15.73;;
47860;SDS011;33620;52.340;5.984;2024-01-30T03:11:49;26.75;;;14.55;;
47860;SDS011;33620;52.340;5.984;2024-01-30T03:14:15;26.73;;;14.38;;
47860;SDS011;33620;52.340;5.984;2024-01-30T03:16:40;29.55;;;16.08;;
47860;SDS011;33620;52.340;5.984;2024-01-30T03:19:06;28.58;;;15.07;;
47860;SDS011;33620;52.340;5.984;2024-01-30T03:21:35;26.40;;;14.35;;
47860;SDS011;33620;52.340;5.984;2024-01-30T03:24:00;27.23;;;14.85;;
47860;SDS011;33620;52.340;5.984;2024-01-30T03:26:25;25.50;;;14.13;;
47860;SDS011;33620;52.340;5.984;2024-01-30T03:28:51;30.80;;;16.45;;
47860;SDS011;33620;52.340;5.984;2024-01-30T03:31:16;28.20;;;15.00;;
47860;SDS011;33620;52.340;5.984;2024-01-30T03:33:42;26.95;;;16.08;;
47860;SDS011;33620;52.340;5.984;2024-01-30T03:36:07;30.48;;;16.70;;
47860;SDS011;33620;52.340;5.984;2024-01-30T03:38:33;28.02;;;14.90;;
47860;SDS011;33620;52.340;5.984;2024-01-30T03:40:59;34.47;;;18.77;;
47860;SDS011;33620;52.340;5.984;2024-01-30T03:43:25;39.17;;;19.05;;
47860;SDS011;33620;52.340;5.984;2024-01-30T03:45:50;29.02;;;16.55;;
47860;SDS011;33620;52.340;5.984;2024-01-30T03:48:16;27.40;;;15.93;;
47860;SDS011;33620;52.340;5.984;2024-01-30T03:50:41;26.33;;;15.52;;
47860;SDS011;33620;52.340;5.984;2024-01-30T03:53:06;27.83;;;15.25;;
47860;SDS011;33620;52.340;5.984;2024-01-30T03:55:32;34.30;;;18.33;;
47860;SDS011;33620;52.340;5.984;2024-01-30T03:57:57;28.33;;;16.08;;
47860;SDS011;33620;52.340;5.984;2024-01-30T04:00:22;32.47;;;19.00;;
47860;SDS011;33620;52.340;5.984;2024-01-30T04:02:48;29.75;;;16.08;;
47860;SDS011;33620;52.340;5.984;2024-01-30T04:05:13;29.27;;;17.08;;
47860;SDS011;33620;52.340;5.984;2024-01-30T04:07:39;26.98;;;16.08;;
47860;SDS011;33620;52.340;5.984;2024-01-30T04:10:04;33.85;;;18.05;;
47860;SDS011;33620;52.340;5.984;2024-01-30T04:12:31;36.90;;;18.90;;
47860;SDS011;33620;52.340;5.984;2024-01-30T04:14:56;32.95;;;18.65;;
47860;SDS011;33620;52.340;5.984;2024-01-30T04:17:22;36.15;;;19.95;;
47860;SDS011;33620;52.340;5.984;2024-01-30T04:19:47;33.25;;;18.60;;
47860;SDS011;33620;52.340;5.984;2024-01-30T04:22:12;36.03;;;20.23;;
47860;SDS011;33620;52.340;5.984;2024-01-30T04:24:38;31.88;;;17.83;;
47860;SDS011;33620;52.340;5.984;2024-01-30T04:27:03;36.17;;;19.02;;
47860;SDS011;33620;52.340;5.984;2024-01-30T04:29:29;36.03;;;20.10;;
47860;SDS011;33620;52.340;5.984;2024-01-30T04:31:54;33.17;;;19.92;;
47860;SDS011;33620;52.340;5.984;2024-01-30T04:34:19;37.85;;;21.13;;
47860;SDS011;33620;52.340;5.984;2024-01-30T04:36:45;29.17;;;16.52;;
47860;SDS011;33620;52.340;5.984;2024-01-30T04:39:11;31.35;;;19.08;;
47860;SDS011;33620;52.340;5.984;2024-01-30T04:41:37;37.83;;;21.42;;
47860;SDS011;33620;52.340;5.984;2024-01-30T04:44:03;32.28;;;17.00;;
47860;SDS011;33620;52.340;5.984;2024-01-30T04:46:28;34.95;;;19.60;;
47860;SDS011;33620;52.340;5.984;2024-01-30T04:48:53;37.53;;;19.42;;
47860;SDS011;33620;52.340;5.984;2024-01-30T04:51:19;29.75;;;18.10;;
47860;SDS011;33620;52.340;5.984;2024-01-30T04:53:45;32.03;;;18.10;;
47860;SDS011;33620;52.340;5.984;2024-01-30T04:56:10;27.55;;;15.52;;
47860;SDS011;33620;52.340;5.984;2024-01-30T04:58:35;28.85;;;16.38;;
47860;SDS011;33620;52.340;5.984;2024-01-30T05:01:01;28.80;;;16.13;;
47860;SDS011;33620;52.340;5.984;2024-01-30T05:03:27;28.73;;;15.57;;
47860;SDS011;33620;52.340;5.984;2024-01-30T05:05:52;27.17;;;15.00;;
47860;SDS011;33620;52.340;5.984;2024-01-30T05:08:18;30.88;;;16.80;;
47860;SDS011;33620;52.340;5.984;2024-01-30T05:10:43;30.45;;;17.17;;
47860;SDS011;33620;52.340;5.984;2024-01-30T05:13:09;30.00;;;16.40;;
47860;SDS011;33620;52.340;5.984;2024-01-30T05:15:35;32.55;;;19.30;;
47860;SDS011;33620;52.340;5.984;2024-01-30T05:18:00;32.63;;;17.08;;
47860;SDS011;33620;52.340;5.984;2024-01-30T05:20:25;27.40;;;16.60;;
47860;SDS011;33620;52.340;5.984;2024-01-30T05:22:53;28.67;;;16.88;;
47860;SDS011;33620;52.340;5.984;2024-01-30T05:25:18;32.83;;;17.48;;
47860;SDS011;33620;52.340;5.984;2024-01-30T05:27:44;28.00;;;16.00;;
47860;SDS011;33620;52.340;5.984;2024-01-30T05:30:12;36.05;;;18.55;;
47860;SDS011;33620;52.340;5.984;2024-01-30T05:32:38;27.55;;;15.18;;
47860;SDS011;33620;52.340;5.984;2024-01-30T05:35:03;35.75;;;18.40;;
47860;SDS011;33620;52.340;5.984;2024-01-30T05:37:29;29.90;;;16.63;;
47860;SDS011;33620;52.340;5.984;2024-01-30T05:39:54;29.27;;;16.63;;
47860;SDS011;33620;52.340;5.984;2024-01-30T05:42:19;32.85;;;18.90;;
47860;SDS011;33620;52.340;5.984;2024-01-30T05:44:45;29.38;;;16.70;;
47860;SDS011;33620;52.340;5.984;2024-01-30T05:47:10;26.80;;;15.50;;
47860;SDS011;33620;52.340;5.984;2024-01-30T05:49:35;27.73;;;15.35;;
47860;SDS011;33620;52.340;5.984;2024-01-30T05:52:03;29.42;;;16.20;;
47860;SDS011;33620;52.340;5.984;2024-01-30T05:54:28;27.70;;;16.05;;
47860;SDS011;33620;52.340;5.984;2024-01-30T05:56:54;30.45;;;16.25;;
47860;SDS011;33620;52.340;5.984;2024-01-30T05:59:19;29.17;;;15.13;;
47860;SDS011;33620;52.340;5.984;2024-01-30T06:01:45;28.08;;;15.77;;
47860;SDS011;33620;52.340;5.984;2024-01-30T06:04:11;29.30;;;16.23;;
47860;SDS011;33620;52.340;5.984;2024-01-30T06:06:37;35.03;;;18.85;;
47860;SDS011;33620;52.340;5.984;2024-01-30T06:09:02;31.65;;;17.33;;
47860;SDS011;33620;52.340;5.984;2024-01-30T06:11:27;33.50;;;18.52;;
47860;SDS011;33620;52.340;5.984;2024-01-30T06:13:53;32.20;;;17.65;;
47860;SDS011;33620;52.340;5.984;2024-01-30T06:16:18;30.83;;;18.00;;
47860;SDS011;33620;52.340;5.984;2024-01-30T06:18:46;29.27;;;15.82;;
47860;SDS011;33620;52.340;5.984;2024-01-30T06:21:11;30.42;;;16.77;;
47860;SDS011;33620;52.340;5.984;2024-01-30T06:23:37;31.15;;;18.25;;
47860;SDS011;33620;52.340;5.984;2024-01-30T06:26:02;31.10;;;17.20;;
47860;SDS011;33620;52.340;5.984;2024-01-30T06:28:28;36.42;;;19.88;;
47860;SDS011;33620;52.340;5.984;2024-01-30T06:30:53;34.83;;;18.42;;
47860;SDS011;33620;52.340;5.984;2024-01-30T06:33:19;31.05;;;15.75;;
47860;SDS011;33620;52.340;5.984;2024-01-30T06:35:44;28.77;;;15.63;;
47860;SDS011;33620;52.340;5.984;2024-01-30T06:38:10;30.90;;;17.00;;
47860;SDS011;33620;52.340;5.984;2024-01-30T06:40:36;33.65;;;19.15;;
47860;SDS011;33620;52.340;5.984;2024-01-30T06:43:02;32.38;;;16.55;;
47860;SDS011;33620;52.340;5.984;2024-01-30T06:45:27;30.08;;;16.70;;
47860;SDS011;33620;52.340;5.984;2024-01-30T06:47:53;31.45;;;16.98;;
47860;SDS011;33620;52.340;5.984;2024-01-30T06:50:18;29.05;;;15.65;;
47860;SDS011;33620;52.340;5.984;2024-01-30T06:52:43;30.75;;;16.80;;
47860;SDS011;33620;52.340;5.984;2024-01-30T06:55:09;31.42;;;16.90;;
47860;SDS011;33620;52.340;5.984;2024-01-30T06:57:34;29.00;;;16.05;;
47860;SDS011;33620;52.340;5.984;2024-01-30T06:59:59;27.95;;;14.70;;
47860;SDS011;33620;52.340;5.984;2024-01-30T07:02:25;30.35;;;15.93;;
47860;SDS011;33620;52.340;5.984;2024-01-30T07:04:50;29.02;;;15.90;;
47860;SDS011;33620;52.340;5.984;2024-01-30T07:07:16;27.77;;;16.27;;
47860;SDS011;33620;52.340;5.984;2024-01-30T07:09:41;31.38;;;17.88;;
47860;SDS011;33620;52.340;5.984;2024-01-30T07:12:07;32.78;;;16.65;;
47860;SDS011;33620;52.340;5.984;2024-01-30T07:14:33;35.20;;;18.23;;
47860;SDS011;33620;52.340;5.984;2024-01-30T07:16:58;30.92;;;16.23;;
47860;SDS011;33620;52.340;5.984;2024-01-30T07:19:23;29.80;;;15.73;;
47860;SDS011;33620;52.340;5.984;2024-01-30T07:21:49;27.63;;;14.50;;
47860;SDS011;33620;52.340;5.984;2024-01-30T07:24:14;28.27;;;14.35;;
47860;SDS011;33620;52.340;5.984;2024-01-30T07:26:39;31.35;;;14.93;;
47860;SDS011;33620;52.340;5.984;2024-01-30T07:29:06;29.38;;;15.50;;
47860;SDS011;33620;52.340;5.984;2024-01-30T07:31:31;27.75;;;15.57;;
47860;SDS011;33620;52.340;5.984;2024-01-30T07:33:56;28.65;;;15.23;;
47860;SDS011;33620;52.340;5.984;2024-01-30T07:36:22;28.75;;;16.05;;
47860;SDS011;33620;52.340;5.984;2024-01-30T07:38:47;25.55;;;14.05;;
47860;SDS011;33620;52.340;5.984;2024-01-30T07:41:12;30.08;;;15.98;;
47860;SDS011;33620;52.340;5.984;2024-01-30T07:43:38;30.45;;;16.52;;
47860;SDS011;33620;52.340;5.984;2024-01-30T07:46:04;28.50;;;14.50;;
47860;SDS011;33620;52.340;5.984;2024-01-30T07:48:31;29.88;;;15.90;;
47860;SDS011;33620;52.340;5.984;2024-01-30T07:50:58;28.33;;;14.15;;
47860;SDS011;33620;52.340;5.984;2024-01-30T07:53:24;30.83;;;15.88;;
47860;SDS011;33620;52.340;5.984;2024-01-30T07:55:49;29.20;;;15.73;;
47860;SDS011;33620;52.340;5.984;2024-01-30T07:58:15;28.38;;;15.45;;
47860;SDS011;33620;52.340;5.984;2024-01-30T08:00:40;27.73;;;14.50;;
47860;SDS011;33620;52.340;5.984;2024-01-30T08:03:06;27.17;;;12.70;;
47860;SDS011;33620;52.340;5.984;2024-01-30T08:05:31;30.40;;;14.40;;
47860;SDS011;33620;52.340;5.984;2024-01-30T08:07:57;26.33;;;13.68;;
47860;SDS011;33620;52.340;5.984;2024-01-30T08:10:22;28.88;;;14.15;;
47860;SDS011;33620;52.340;5.984;2024-01-30T08:12:48;26.48;;;12.93;;
47860;SDS011;33620;52.340;5.984;2024-01-30T08:15:13;23.92;;;12.65;;
47860;SDS011;33620;52.340;5.984;2024-01-30T08:17:39;24.60;;;12.43;;
47860;SDS011;33620;52.340;5.984;2024-01-30T08:20:04;26.67;;;13.23;;
47860;SDS011;33620;52.340;5.984;2024-01-30T08:22:31;24.98;;;12.90;;
47860;SDS011;33620;52.340;5.984;2024-01-30T08:24:56;30.55;;;14.15;;
47860;SDS011;33620;52.340;5.984;2024-01-30T08:27:21;30.02;;;12.50;;
47860;SDS011;33620;52.340;5.984;2024-01-30T08:29:47;25.65;;;13.20;;
47860;SDS011;33620;52.340;5.984;2024-01-30T08:32:12;28.70;;;12.52;;
47860;SDS011;33620;52.340;5.984;2024-01-30T08:34:38;26.63;;;11.82;;
47860;SDS011;33620;52.340;5.984;2024-01-30T08:37:03;29.10;;;13.18;;
47860;SDS011;33620;52.340;5.984;2024-01-30T08:39:28;25.05;;;11.90;;
47860;SDS011;33620;52.340;5.984;2024-01-30T08:41:54;25.92;;;11.57;;
47860;SDS011;33620;52.340;5.984;2024-01-30T08:44:19;28.60;;;12.23;;
47860;SDS011;33620;52.340;5.984;2024-01-30T08:46:45;25.60;;;11.32;;
47860;SDS011;33620;52.340;5.984;2024-01-30T08:49:11;24.40;;;11.55;;
47860;SDS011;33620;52.340;5.984;2024-01-30T08:51:38;24.75;;;11.60;;
47860;SDS011;33620;52.340;5.984;2024-01-30T08:54:04;23.40;;;11.20;;
47860;SDS011;33620;52.340;5.984;2024-01-30T08:56:29;24.70;;;11.43;;
47860;SDS011;33620;52.340;5.984;2024-01-30T08:58:54;26.90;;;11.30;;
47860;SDS011;33620;52.340;5.984;2024-01-30T09:01:20;23.58;;;10.98;;
47860;SDS011;33620;52.340;5.984;2024-01-30T09:03:45;23.50;;;10.40;;
47860;SDS011;33620;52.340;5.984;2024-01-30T09:06:11;26.63;;;11.77;;
47860;SDS011;33620;52.340;5.984;2024-01-30T09:08:37;29.30;;;13.10;;
47860;SDS011;33620;52.340;5.984;2024-01-30T09:11:10;24.55;;;11.20;;
47860;SDS011;33620;52.340;5.984;2024-01-30T09:13:37;26.50;;;11.52;;
47860;SDS011;33620;52.340;5.984;2024-01-30T09:16:02;23.15;;;10.35;;
47860;SDS011;33620;52.340;5.984;2024-01-30T09:18:28;26.17;;;12.00;;
47860;SDS011;33620;52.340;5.984;2024-01-30T09:20:53;25.55;;;11.82;;
47860;SDS011;33620;52.340;5.984;2024-01-30T09:23:19;27.33;;;12.77;;
47860;SDS011;33620;52.340;5.984;2024-01-30T09:25:44;26.75;;;11.77;;
47860;SDS011;33620;52.340;5.984;2024-01-30T09:28:10;27.70;;;11.75;;
47860;SDS011;33620;52.340;5.984;2024-01-30T09:30:35;24.70;;;12.18;;
47860;SDS011;33620;52.340;5.984;2024-01-30T09:33:01;30.42;;;12.45;;
47860;SDS011;33620;52.340;5.984;2024-01-30T09:35:26;24.90;;;11.77;;
47860;SDS011;33620;52.340;5.984;2024-01-30T09:37:51;25.08;;;11.93;;
47860;SDS011;33620;52.340;5.984;2024-01-30T09:40:17;31.48;;;11.77;;
47860;SDS011;33620;52.340;5.984;2024-01-30T09:42:44;26.92;;;12.43;;
47860;SDS011;33620;52.340;5.984;2024-01-30T09:45:12;25.88;;;11.25;;
47860;SDS011;33620;52.340;5.984;2024-01-30T09:47:42;25.77;;;11.77;;
47860;SDS011;33620;52.340;5.984;2024-01-30T09:50:10;25.63;;;11.82;;
47860;SDS011;33620;52.340;5.984;2024-01-30T09:52:36;25.05;;;11.20;;
47860;SDS011;33620;52.340;5.984;2024-01-30T09:55:02;24.95;;;11.90;;
47860;SDS011;33620;52.340;5.984;2024-01-30T09:57:28;28.70;;;11.50;;
47860;SDS011;33620;52.340;5.984;2024-01-30T09:59:53;26.48;;;12.90;;
47860;SDS011;33620;52.340;5.984;2024-01-30T10:02:19;28.50;;;12.15;;
47860;SDS011;33620;52.340;5.984;2024-01-30T10:04:47;25.38;;;11.38;;
47860;SDS011;33620;52.340;5.984;2024-01-30T10:07:14;27.75;;;10.85;;
47860;SDS011;33620;52.340;5.984;2024-01-30T10:09:40;25.00;;;11.00;;
47860;SDS011;33620;52.340;5.984;2024-01-30T10:12:05;28.38;;;12.02;;
47860;SDS011;33620;52.340;5.984;2024-01-30T10:14:31;26.08;;;11.63;;
47860;SDS011;33620;52.340;5.984;2024-01-30T10:16:57;28.85;;;12.55;;
47860;SDS011;33620;52.340;5.984;2024-01-30T10:19:23;29.10;;;12.43;;
47860;SDS011;33620;52.340;5.984;2024-01-30T10:21:48;23.13;;;11.10;;
47860;SDS011;33620;52.340;5.984;2024-01-30T10:24:14;24.95;;;11.20;;
47860;SDS011;33620;52.340;5.984;2024-01-30T10:26:39;25.48;;;11.80;;
47860;SDS011;33620;52.340;5.984;2024-01-30T10:29:05;27.08;;;12.13;;
47860;SDS011;33620;52.340;5.984;2024-01-30T10:31:30;24.23;;;11.52;;
47860;SDS011;33620;52.340;5.984;2024-01-30T10:33:56;25.30;;;11.93;;
47860;SDS011;33620;52.340;5.984;2024-01-30T10:36:22;23.92;;;12.00;;
47860;SDS011;33620;52.340;5.984;2024-01-30T10:38:53;25.10;;;12.90;;
47860;SDS011;33620;52.340;5.984;2024-01-30T10:41:26;24.95;;;11.63;;
47860;SDS011;33620;52.340;5.984;2024-01-30T10:43:56;25.98;;;12.38;;
47860;SDS011;33620;52.340;5.984;2024-01-30T10:46:33;26.77;;;12.13;;
47860;SDS011;33620;52.340;5.984;2024-01-30T10:49:00;24.85;;;11.23;;
47860;SDS011;33620;52.340;5.984;2024-01-30T10:51:28;24.73;;;11.65;;
47860;SDS011;33620;52.340;5.984;2024-01-30T10:53:54;22.63;;;11.85;;
47860;SDS011;33620;52.340;5.984;2024-01-30T10:56:21;25.90;;;11.60;;
47860;SDS011;33620;52.340;5.984;2024-01-30T10:58:47;24.33;;;11.35;;
47860;SDS011;33620;52.340;5.984;2024-01-30T11:01:21;23.58;;;11.05;;
47860;SDS011;33620;52.340;5.984;2024-01-30T11:03:48;25.05;;;11.82;;
47860;SDS011;33620;52.340;5.984;2024-01-30T11:06:16;24.75;;;12.15;;
47860;SDS011;33620;52.340;5.984;2024-01-30T11:08:43;24.52;;;12.10;;
47860;SDS011;33620;52.340;5.984;2024-01-30T11:11:10;25.83;;;12.20;;
47860;SDS011;33620;52.340;5.984;2024-01-30T11:13:35;23.42;;;10.48;;
47860;SDS011;33620;52.340;5.984;2024-01-30T11:16:04;22.27;;;9.95;;
47860;SDS011;33620;52.340;5.984;2024-01-30T11:18:30;27.42;;;11.98;;
47860;SDS011;33620;52.340;5.984;2024-01-30T11:20:57;18.48;;;9.65;;
47860;SDS011;33620;52.340;5.984;2024-01-30T11:23:23;22.23;;;10.55;;
47860;SDS011;33620;52.340;5.984;2024-01-30T11:25:52;24.30;;;10.68;;
47860;SDS011;33620;52.340;5.984;2024-01-30T11:28:18;22.25;;;9.63;;
47860;SDS011;33620;52.340;5.984;2024-01-30T11:30:43;19.90;;;9.82;;
47860;SDS011;33620;52.340;5.984;2024-01-30T11:33:10;20.98;;;10.15;;
47860;SDS011;33620;52.340;5.984;2024-01-30T11:38:09;23.13;;;10.10;;
47860;SDS011;33620;52.340;5.984;2024-01-30T11:40:36;19.77;;;9.07;;
47860;SDS011;33620;52.340;5.984;2024-01-30T11:43:03;18.63;;;8.50;;
47860;SDS011;33620;52.340;5.984;2024-01-30T11:45:31;21.65;;;9.63;;
47860;SDS011;33620;52.340;5.984;2024-01-30T11:47:56;17.17;;;8.35;;
47860;SDS011;33620;52.340;5.984;2024-01-30T11:50:23;21.00;;;8.80;;
47860;SDS011;33620;52.340;5.984;2024-01-30T11:52:49;19.17;;;8.48;;
47860;SDS011;33620;52.340;5.984;2024-01-30T11:55:15;18.00;;;8.02;;
47860;SDS011;33620;52.340;5.984;2024-01-30T11:57:40;18.33;;;8.73;;
47860;SDS011;33620;52.340;5.984;2024-01-30T12:00:13;21.95;;;8.23;;
47860;SDS011;33620;52.340;5.984;2024-01-30T12:02:40;16.70;;;7.33;;
47860;SDS011;33620;52.340;5.984;2024-01-30T12:05:06;16.70;;;7.40;;
47860;SDS011;33620;52.340;5.984;2024-01-30T12:07:32;14.75;;;6.75;;
47860;SDS011;33620;52.340;5.984;2024-01-30T12:09:58;17.70;;;7.75;;
47860;SDS011;33620;52.340;5.984;2024-01-30T12:12:24;16.15;;;6.97;;
47860;SDS011;33620;52.340;5.984;2024-01-30T12:14:50;18.63;;;7.32;;
47860;SDS011;33620;52.340;5.984;2024-01-30T12:17:32;16.02;;;7.10;;
47860;SDS011;33620;52.340;5.984;2024-01-30T12:20:06;18.40;;;7.10;;
47860;SDS011;33620;52.340;5.984;2024-01-30T12:22:42;16.33;;;6.85;;
47860;SDS011;33620;52.340;5.984;2024-01-30T12:25:12;16.45;;;6.75;;
47860;SDS011;33620;52.340;5.984;2024-01-30T12:27:38;15.18;;;5.43;;
47860;SDS011;33620;52.340;5.984;2024-01-30T12:30:08;11.48;;;5.07;;
47860;SDS011;33620;52.340;5.984;2024-01-30T12:32:39;9.85;;;4.75;;
47860;SDS011;33620;52.340;5.984;2024-01-30T12:35:18;11.50;;;4.05;;
47860;SDS011;33620;52.340;5.984;2024-01-30T12:37:45;10.82;;;3.80;;
47860;SDS011;33620;52.340;5.984;2024-01-30T12:40:12;7.47;;;4.13;;
47860;SDS011;33620;52.340;5.984;2024-01-30T12:42:39;14.02;;;4.18;;
47860;SDS011;33620;52.340;5.984;2024-01-30T12:45:07;9.82;;;3.53;;
47860;SDS011;33620;52.340;5.984;2024-01-30T12:47:32;10.98;;;3.78;;
47860;SDS011;33620;52.340;5.984;2024-01-30T12:49:58;10.85;;;3.15;;
47860;SDS011;33620;52.340;5.984;2024-01-30T12:52:23;9.60;;;3.13;;
47860;SDS011;33620;52.340;5.984;2024-01-30T12:54:49;9.27;;;2.78;;
47860;SDS011;33620;52.340;5.984;2024-01-30T12:57:14;8.57;;;2.92;;
47860;SDS011;33620;52.340;5.984;2024-01-30T12:59:41;9.63;;;3.10;;
47860;SDS011;33620;52.340;5.984;2024-01-30T13:02:06;5.97;;;2.38;;
47860;SDS011;33620;52.340;5.984;2024-01-30T13:04:32;7.07;;;2.67;;
47860;SDS011;33620;52.340;5.984;2024-01-30T13:06:58;12.02;;;2.78;;
47860;SDS011;33620;52.340;5.984;2024-01-30T13:09:23;6.10;;;2.58;;
47860;SDS011;33620;52.340;5.984;2024-01-30T13:11:49;6.90;;;2.85;;
47860;SDS011;33620;52.340;5.984;2024-01-30T13:14:16;9.02;;;2.95;;
47860;SDS011;33620;52.340;5.984;2024-01-30T13:16:41;10.57;;;3.40;;
47860;SDS011;33620;52.340;5.984;2024-01-30T13:19:07;9.23;;;4.55;;
47860;SDS011;33620;52.340;5.984;2024-01-30T13:21:32;14.38;;;5.13;;
47860;SDS011;33620;52.340;5.984;2024-01-30T13:23:57;14.38;;;4.30;;
47860;SDS011;33620;52.340;5.984;2024-01-30T13:26:23;11.45;;;3.50;;
47860;SDS011;33620;52.340;5.984;2024-01-30T13:28:48;4.60;;;3.00;;
47860;SDS011;33620;52.340;5.984;2024-01-30T13:31:14;5.07;;;3.22;;
47860;SDS011;33620;52.340;5.984;2024-01-30T13:33:39;9.55;;;2.92;;
47860;SDS011;33620;52.340;5.984;2024-01-30T13:36:05;4.13;;;2.80;;
47860;SDS011;33620;52.340;5.984;2024-01-30T13:38:32;4.03;;;2.70;;
47860;SDS011;33620;52.340;5.984;2024-01-30T13:40:58;7.05;;;2.65;;
47860;SDS011;33620;52.340;5.984;2024-01-30T13:43:23;5.55;;;2.53;;
47860;SDS011;33620;52.340;5.984;2024-01-30T13:45:48;12.25;;;3.65;;
47860;SDS011;33620;52.340;5.984;2024-01-30T13:48:14;8.32;;;3.33;;
47860;SDS011;33620;52.340;5.984;2024-01-30T13:50:39;6.63;;;3.45;;
47860;SDS011;33620;52.340;5.984;2024-01-30T13:53:04;6.97;;;3.28;;
47860;SDS011;33620;52.340;5.984;2024-01-30T13:55:30;8.43;;;3.40;;
47860;SDS011;33620;52.340;5.984;2024-01-30T13:57:55;9.80;;;3.55;;
47860;SDS011;33620;52.340;5.984;2024-01-30T14:00:21;8.27;;;3.78;;
47860;SDS011;33620;52.340;5.984;2024-01-30T14:02:47;9.50;;;3.60;;
47860;SDS011;33620;52.340;5.984;2024-01-30T14:05:13;5.88;;;3.17;;
47860;SDS011;33620;52.340;5.984;2024-01-30T14:07:40;7.43;;;3.05;;
47860;SDS011;33620;52.340;5.984;2024-01-30T14:10:09;9.45;;;3.60;;
47860;SDS011;33620;52.340;5.984;2024-01-30T14:12:36;7.43;;;3.08;;
47860;SDS011;33620;52.340;5.984;2024-01-30T14:15:01;8.85;;;3.55;;
47860;SDS011;33620;52.340;5.984;2024-01-30T14:17:27;9.05;;;3.00;;
47860;SDS011;33620;52.340;5.984;2024-01-30T14:19:52;9.90;;;3.42;;
47860;SDS011;33620;52.340;5.984;2024-01-30T14:22:18;6.47;;;2.97;;